sensor_id;sensor_type;location;lat;lon;timestamp;P1;durP1;ratioP1;P2;durP2;ratioP2
14076;SDS011;7114;51.100;13.998;2023-04-15T00:02:16;4.15;;;0.70;;
14076;SDS011;7114;51.100;13.998;2023-04-15T00:04:44;3.63;;;0.50;;
14076;SDS011;7114;51.100;13.998;2023-04-15T00:07:10;4.28;;;0.57;;
14076;SDS011;7114;51.100;13.998;2023-04-15T00:09:37;3.22;;;0.40;;
14076;SDS011;7114;51.100;13.998;2023-04-15T00:12:04;3.37;;;0.43;;
14076;SDS011;7114;51.100;13.998;2023-04-15T00:14:30;4.10;;;0.60;;
14076;SDS011;7114;51.100;13.998;2023-04-15T00:16:56;3.80;;;0.60;;
14076;SDS011;7114;51.100;13.998;2023-04-15T00:19:23;3.22;;;0.40;;
14076;SDS011;7114;51.100;13.998;2023-04-15T00:21:50;3.40;;;0.47;;
14076;SDS011;7114;51.100;13.998;2023-04-15T00:24:17;3.03;;;0.30;;
14076;SDS011;7114;51.100;13.998;2023-04-15T00:26:43;3.95;;;0.55;;
14076;SDS011;7114;51.100;13.998;2023-04-15T00:29:09;3.63;;;0.43;;
14076;SDS011;7114;51.100;13.998;2023-04-15T00:31:35;3.40;;;0.40;;
14076;SDS011;7114;51.100;13.998;2023-04-15T00:34:02;3.58;;;0.50;;
14076;SDS011;7114;51.100;13.998;2023-04-15T00:36:28;3.80;;;0.50;;
14076;SDS011;7114;51.100;13.998;2023-04-15T00:38:57;3.80;;;0.45;;
14076;SDS011;7114;51.100;13.998;2023-04-15T00:41:23;3.70;;;0.45;;
14076;SDS011;7114;51.100;13.998;2023-04-15T00:43:49;3.05;;;0.40;;
14076;SDS011;7114;51.100;13.998;2023-04-15T00:46:16;4.35;;;0.57;;
14076;SDS011;7114;51.100;13.998;2023-04-15T00:48:44;3.87;;;0.40;;
14076;SDS011;7114;51.100;13.998;2023-04-15T00:51:11;3.60;;;0.50;;
14076;SDS011;7114;51.100;13.998;2023-04-15T00:53:38;3.45;;;0.43;;
14076;SDS011;7114;51.100;13.998;2023-04-15T00:56:06;4.07;;;0.68;;
14076;SDS011;7114;51.100;13.998;2023-04-15T00:58:32;2.88;;;0.40;;
14076;SDS011;7114;51.100;13.998;2023-04-15T01:00:59;3.57;;;0.50;;
14076;SDS011;7114;51.100;13.998;2023-04-15T01:03:25;3.58;;;0.50;;
14076;SDS011;7114;51.100;13.998;2023-04-15T01:05:51;3.20;;;0.50;;
14076;SDS011;7114;51.100;13.998;2023-04-15T01:08:22;4.20;;;0.60;;
14076;SDS011;7114;51.100;13.998;2023-04-15T01:10:48;4.47;;;0.60;;
14076;SDS011;7114;51.100;13.998;2023-04-15T01:13:16;4.07;;;0.70;;
14076;SDS011;7114;51.100;13.998;2023-04-15T01:15:42;4.13;;;0.57;;
14076;SDS011;7114;51.100;13.998;2023-04-15T01:18:08;3.63;;;0.60;;
14076;SDS011;7114;51.100;13.998;2023-04-15T01:20:35;3.80;;;0.50;;
14076;SDS011;7114;51.100;13.998;2023-04-15T01:23:01;3.97;;;0.60;;
14076;SDS011;7114;51.100;13.998;2023-04-15T01:25:31;4.07;;;0.60;;
14076;SDS011;7114;51.100;13.998;2023-04-15T01:27:58;4.07;;;0.65;;
14076;SDS011;7114;51.100;13.998;2023-04-15T01:30:24;3.90;;;0.65;;
14076;SDS011;7114;51.100;13.998;2023-04-15T01:32:51;3.35;;;0.45;;
14076;SDS011;7114;51.100;13.998;2023-04-15T01:35:18;3.90;;;0.68;;
14076;SDS011;7114;51.100;13.998;2023-04-15T01:37:45;3.80;;;0.50;;
14076;SDS011;7114;51.100;13.998;2023-04-15T01:40:11;3.95;;;0.50;;
14076;SDS011;7114;51.100;13.998;2023-04-15T01:42:40;4.00;;;0.50;;
14076;SDS011;7114;51.100;13.998;2023-04-15T01:45:07;3.33;;;0.40;;
14076;SDS011;7114;51.100;13.998;2023-04-15T01:47:34;3.95;;;0.50;;
14076;SDS011;7114;51.100;13.998;2023-04-15T01:50:00;3.90;;;0.60;;
14076;SDS011;7114;51.100;13.998;2023-04-15T01:52:26;4.95;;;0.60;;
14076;SDS011;7114;51.100;13.998;2023-04-15T01:54:53;3.75;;;0.50;;
14076;SDS011;7114;51.100;13.998;2023-04-15T01:57:19;3.80;;;0.60;;
14076;SDS011;7114;51.100;13.998;2023-04-15T01:59:47;3.65;;;0.55;;
14076;SDS011;7114;51.100;13.998;2023-04-15T02:02:13;3.20;;;0.40;;
14076;SDS011;7114;51.100;13.998;2023-04-15T02:04:40;3.55;;;0.50;;
14076;SDS011;7114;51.100;13.998;2023-04-15T02:07:06;3.28;;;0.47;;
14076;SDS011;7114;51.100;13.998;2023-04-15T02:09:32;3.50;;;0.40;;
14076;SDS011;7114;51.100;13.998;2023-04-15T02:11:59;4.07;;;0.60;;
14076;SDS011;7114;51.100;13.998;2023-04-15T02:14:25;3.67;;;0.50;;
14076;SDS011;7114;51.100;13.998;2023-04-15T02:16:53;3.83;;;0.50;;
14076;SDS011;7114;51.100;13.998;2023-04-15T02:19:19;3.00;;;0.40;;
14076;SDS011;7114;51.100;13.998;2023-04-15T02:21:46;3.60;;;0.50;;
14076;SDS011;7114;51.100;13.998;2023-04-15T02:24:12;3.33;;;0.50;;
14076;SDS011;7114;51.100;13.998;2023-04-15T02:26:38;3.67;;;0.40;;
14076;SDS011;7114;51.100;13.998;2023-04-15T02:29:04;4.18;;;0.60;;
14076;SDS011;7114;51.100;13.998;2023-04-15T02:31:31;3.58;;;0.50;;
14076;SDS011;7114;51.100;13.998;2023-04-15T02:34:02;4.18;;;0.65;;
14076;SDS011;7114;51.100;13.998;2023-04-15T02:36:28;4.07;;;0.63;;
14076;SDS011;7114;51.100;13.998;2023-04-15T02:38:55;3.37;;;0.50;;
14076;SDS011;7114;51.100;13.998;2023-04-15T02:41:21;4.18;;;0.52;;
14076;SDS011;7114;51.100;13.998;2023-04-15T02:43:51;4.22;;;0.70;;
14076;SDS011;7114;51.100;13.998;2023-04-15T02:46:19;4.53;;;0.52;;
14076;SDS011;7114;51.100;13.998;2023-04-15T02:48:46;3.50;;;0.45;;
14076;SDS011;7114;51.100;13.998;2023-04-15T02:51:15;3.53;;;0.50;;
14076;SDS011;7114;51.100;13.998;2023-04-15T02:53:43;3.97;;;0.50;;
14076;SDS011;7114;51.100;13.998;2023-04-15T02:56:10;3.75;;;0.50;;
14076;SDS011;7114;51.100;13.998;2023-04-15T02:58:37;3.97;;;0.50;;
14076;SDS011;7114;51.100;13.998;2023-04-15T03:01:04;3.80;;;0.50;;
14076;SDS011;7114;51.100;13.998;2023-04-15T03:03:31;3.67;;;0.50;;
14076;SDS011;7114;51.100;13.998;2023-04-15T03:05:57;4.30;;;0.68;;
14076;SDS011;7114;51.100;13.998;2023-04-15T03:08:25;4.07;;;0.60;;
14076;SDS011;7114;51.100;13.998;2023-04-15T03:10:51;4.13;;;0.60;;
14076;SDS011;7114;51.100;13.998;2023-04-15T03:13:18;3.78;;;0.65;;
14076;SDS011;7114;51.100;13.998;2023-04-15T03:15:45;3.87;;;0.60;;
14076;SDS011;7114;51.100;13.998;2023-04-15T03:18:11;4.18;;;0.65;;
14076;SDS011;7114;51.100;13.998;2023-04-15T03:20:37;4.10;;;0.63;;
14076;SDS011;7114;51.100;13.998;2023-04-15T03:23:03;4.53;;;0.90;;
14076;SDS011;7114;51.100;13.998;2023-04-15T03:25:31;4.55;;;0.75;;
14076;SDS011;7114;51.100;13.998;2023-04-15T03:27:58;4.77;;;0.90;;
14076;SDS011;7114;51.100;13.998;2023-04-15T03:30:25;4.60;;;0.90;;
14076;SDS011;7114;51.100;13.998;2023-04-15T03:32:51;5.03;;;1.00;;
14076;SDS011;7114;51.100;13.998;2023-04-15T03:35:17;5.30;;;1.13;;
14076;SDS011;7114;51.100;13.998;2023-04-15T03:37:43;5.65;;;1.50;;
14076;SDS011;7114;51.100;13.998;2023-04-15T03:40:10;6.03;;;1.50;;
14076;SDS011;7114;51.100;13.998;2023-04-15T03:42:38;5.63;;;1.50;;
14076;SDS011;7114;51.100;13.998;2023-04-15T03:45:05;6.22;;;1.88;;
14076;SDS011;7114;51.100;13.998;2023-04-15T03:47:32;6.68;;;2.15;;
14076;SDS011;7114;51.100;13.998;2023-04-15T03:49:58;6.15;;;1.85;;
14076;SDS011;7114;51.100;13.998;2023-04-15T03:52:25;6.00;;;1.90;;
14076;SDS011;7114;51.100;13.998;2023-04-15T03:54:51;6.10;;;2.00;;
14076;SDS011;7114;51.100;13.998;2023-04-15T03:57:17;5.85;;;1.65;;
14076;SDS011;7114;51.100;13.998;2023-04-15T03:59:45;6.05;;;1.80;;
14076;SDS011;7114;51.100;13.998;2023-04-15T04:02:11;5.70;;;1.65;;
14076;SDS011;7114;51.100;13.998;2023-04-15T04:04:37;7.07;;;1.43;;
14076;SDS011;7114;51.100;13.998;2023-04-15T04:07:04;5.55;;;1.52;;
14076;SDS011;7114;51.100;13.998;2023-04-15T04:09:30;5.72;;;1.58;;
14076;SDS011;7114;51.100;13.998;2023-04-15T04:11:56;5.85;;;1.50;;
14076;SDS011;7114;51.100;13.998;2023-04-15T04:14:22;6.05;;;1.67;;
14076;SDS011;7114;51.100;13.998;2023-04-15T04:16:54;5.97;;;1.80;;
14076;SDS011;7114;51.100;13.998;2023-04-15T04:19:21;6.47;;;1.70;;
14076;SDS011;7114;51.100;13.998;2023-04-15T04:21:47;6.10;;;1.80;;
14076;SDS011;7114;51.100;13.998;2023-04-15T04:24:14;6.22;;;1.77;;
14076;SDS011;7114;51.100;13.998;2023-04-15T04:26:40;6.32;;;1.80;;
14076;SDS011;7114;51.100;13.998;2023-04-15T04:29:07;6.30;;;1.60;;
14076;SDS011;7114;51.100;13.998;2023-04-15T04:31:33;5.38;;;1.27;;
14076;SDS011;7114;51.100;13.998;2023-04-15T04:34:01;5.25;;;1.30;;
14076;SDS011;7114;51.100;13.998;2023-04-15T04:36:27;5.45;;;1.30;;
14076;SDS011;7114;51.100;13.998;2023-04-15T04:38:53;5.40;;;1.20;;
14076;SDS011;7114;51.100;13.998;2023-04-15T04:41:19;5.80;;;1.40;;
14076;SDS011;7114;51.100;13.998;2023-04-15T04:43:46;5.13;;;1.10;;
14076;SDS011;7114;51.100;13.998;2023-04-15T04:46:12;5.50;;;0.90;;
14076;SDS011;7114;51.100;13.998;2023-04-15T04:48:38;5.03;;;1.08;;
14076;SDS011;7114;51.100;13.998;2023-04-15T04:51:06;4.75;;;0.80;;
14076;SDS011;7114;51.100;13.998;2023-04-15T04:53:33;5.23;;;1.10;;
14076;SDS011;7114;51.100;13.998;2023-04-15T04:55:59;5.05;;;0.80;;
14076;SDS011;7114;51.100;13.998;2023-04-15T04:58:26;5.22;;;1.00;;
14076;SDS011;7114;51.100;13.998;2023-04-15T05:00:52;5.18;;;0.90;;
14076;SDS011;7114;51.100;13.998;2023-04-15T05:03:18;5.75;;;0.98;;
14076;SDS011;7114;51.100;13.998;2023-04-15T05:05:45;5.30;;;1.00;;
14076;SDS011;7114;51.100;13.998;2023-04-15T05:08:14;5.28;;;1.20;;
14076;SDS011;7114;51.100;13.998;2023-04-15T05:10:40;5.20;;;1.00;;
14076;SDS011;7114;51.100;13.998;2023-04-15T05:13:07;5.20;;;0.90;;
14076;SDS011;7114;51.100;13.998;2023-04-15T05:15:33;5.68;;;1.00;;
14076;SDS011;7114;51.100;13.998;2023-04-15T05:18:00;5.17;;;0.87;;
14076;SDS011;7114;51.100;13.998;2023-04-15T05:20:27;4.80;;;0.90;;
14076;SDS011;7114;51.100;13.998;2023-04-15T05:22:53;4.78;;;0.75;;
14076;SDS011;7114;51.100;13.998;2023-04-15T05:25:21;4.90;;;0.73;;
14076;SDS011;7114;51.100;13.998;2023-04-15T05:27:47;4.85;;;0.80;;
14076;SDS011;7114;51.100;13.998;2023-04-15T05:30:13;5.30;;;0.77;;
14076;SDS011;7114;51.100;13.998;2023-04-15T05:32:39;4.93;;;0.70;;
14076;SDS011;7114;51.100;13.998;2023-04-15T05:35:06;4.80;;;0.60;;
14076;SDS011;7114;51.100;13.998;2023-04-15T05:37:32;4.03;;;0.50;;
14076;SDS011;7114;51.100;13.998;2023-04-15T05:39:59;4.60;;;0.68;;
14076;SDS011;7114;51.100;13.998;2023-04-15T05:42:27;4.13;;;0.63;;
14076;SDS011;7114;51.100;13.998;2023-04-15T05:44:53;4.30;;;0.60;;
14076;SDS011;7114;51.100;13.998;2023-04-15T05:47:19;4.57;;;0.70;;
14076;SDS011;7114;51.100;13.998;2023-04-15T05:49:46;3.85;;;0.45;;
14076;SDS011;7114;51.100;13.998;2023-04-15T05:52:12;4.20;;;0.52;;
14076;SDS011;7114;51.100;13.998;2023-04-15T05:54:38;3.67;;;0.50;;
14076;SDS011;7114;51.100;13.998;2023-04-15T05:57:05;4.80;;;0.75;;
14076;SDS011;7114;51.100;13.998;2023-04-15T05:59:33;4.35;;;0.60;;
14076;SDS011;7114;51.100;13.998;2023-04-15T06:01:59;4.35;;;0.70;;
14076;SDS011;7114;51.100;13.998;2023-04-15T06:04:25;4.25;;;0.55;;
14076;SDS011;7114;51.100;13.998;2023-04-15T06:06:52;4.30;;;0.50;;
14076;SDS011;7114;51.100;13.998;2023-04-15T06:09:18;4.72;;;0.80;;
14076;SDS011;7114;51.100;13.998;2023-04-15T06:11:44;4.60;;;0.80;;
14076;SDS011;7114;51.100;13.998;2023-04-15T06:14:11;5.78;;;0.90;;
14076;SDS011;7114;51.100;13.998;2023-04-15T06:16:38;4.85;;;0.77;;
14076;SDS011;7114;51.100;13.998;2023-04-15T06:19:05;4.27;;;0.80;;
14076;SDS011;7114;51.100;13.998;2023-04-15T06:21:31;4.80;;;0.88;;
14076;SDS011;7114;51.100;13.998;2023-04-15T06:23:57;5.15;;;0.90;;
14076;SDS011;7114;51.100;13.998;2023-04-15T06:26:25;4.43;;;0.70;;
14076;SDS011;7114;51.100;13.998;2023-04-15T06:28:52;4.53;;;0.70;;
14076;SDS011;7114;51.100;13.998;2023-04-15T06:31:18;4.10;;;0.60;;
14076;SDS011;7114;51.100;13.998;2023-04-15T06:33:46;4.18;;;0.68;;
14076;SDS011;7114;51.100;13.998;2023-04-15T06:36:12;4.50;;;0.60;;
14076;SDS011;7114;51.100;13.998;2023-04-15T06:38:39;3.90;;;0.60;;
14076;SDS011;7114;51.100;13.998;2023-04-15T06:41:05;3.88;;;0.60;;
14076;SDS011;7114;51.100;13.998;2023-04-15T06:43:31;4.60;;;0.80;;
14076;SDS011;7114;51.100;13.998;2023-04-15T06:45:58;3.83;;;0.60;;
14076;SDS011;7114;51.100;13.998;2023-04-15T06:48:24;4.10;;;0.60;;
14076;SDS011;7114;51.100;13.998;2023-04-15T06:50:52;4.13;;;0.70;;
14076;SDS011;7114;51.100;13.998;2023-04-15T06:53:19;4.25;;;0.80;;
14076;SDS011;7114;51.100;13.998;2023-04-15T06:55:45;4.77;;;1.10;;
14076;SDS011;7114;51.100;13.998;2023-04-15T06:58:11;4.40;;;0.70;;
14076;SDS011;7114;51.100;13.998;2023-04-15T07:00:37;4.10;;;0.70;;
14076;SDS011;7114;51.100;13.998;2023-04-15T07:03:04;4.25;;;0.70;;
14076;SDS011;7114;51.100;13.998;2023-04-15T07:05:34;4.43;;;0.80;;
14076;SDS011;7114;51.100;13.998;2023-04-15T07:08:01;4.07;;;0.67;;
14076;SDS011;7114;51.100;13.998;2023-04-15T07:10:28;3.88;;;0.60;;
14076;SDS011;7114;51.100;13.998;2023-04-15T07:12:54;4.55;;;0.90;;
14076;SDS011;7114;51.100;13.998;2023-04-15T07:15:21;4.10;;;0.70;;
14076;SDS011;7114;51.100;13.998;2023-04-15T07:17:47;4.03;;;0.73;;
14076;SDS011;7114;51.100;13.998;2023-04-15T07:20:14;3.57;;;0.60;;
14076;SDS011;7114;51.100;13.998;2023-04-15T07:22:40;3.55;;;0.60;;
14076;SDS011;7114;51.100;13.998;2023-04-15T07:25:08;3.97;;;0.93;;
14076;SDS011;7114;51.100;13.998;2023-04-15T07:27:34;4.20;;;0.60;;
14076;SDS011;7114;51.100;13.998;2023-04-15T07:30:01;4.10;;;0.60;;
14076;SDS011;7114;51.100;13.998;2023-04-15T07:32:27;3.57;;;0.60;;
14076;SDS011;7114;51.100;13.998;2023-04-15T07:34:53;4.55;;;0.77;;
14076;SDS011;7114;51.100;13.998;2023-04-15T07:37:19;3.40;;;0.60;;
14076;SDS011;7114;51.100;13.998;2023-04-15T07:39:46;3.55;;;0.60;;
14076;SDS011;7114;51.100;13.998;2023-04-15T07:42:14;4.07;;;0.60;;
14076;SDS011;7114;51.100;13.998;2023-04-15T07:44:40;3.23;;;0.60;;
14076;SDS011;7114;51.100;13.998;2023-04-15T07:47:06;3.90;;;0.65;;
14076;SDS011;7114;51.100;13.998;2023-04-15T07:49:33;3.83;;;0.50;;
14076;SDS011;7114;51.100;13.998;2023-04-15T07:51:59;4.70;;;0.77;;
14076;SDS011;7114;51.100;13.998;2023-04-15T07:54:25;4.07;;;0.60;;
14076;SDS011;7114;51.100;13.998;2023-04-15T07:56:52;3.80;;;0.50;;
14076;SDS011;7114;51.100;13.998;2023-04-15T07:59:20;3.97;;;0.60;;
14076;SDS011;7114;51.100;13.998;2023-04-15T08:01:46;3.13;;;0.50;;
14076;SDS011;7114;51.100;13.998;2023-04-15T08:04:12;3.63;;;0.60;;
14076;SDS011;7114;51.100;13.998;2023-04-15T08:06:39;5.10;;;1.20;;
14076;SDS011;7114;51.100;13.998;2023-04-15T08:09:06;4.80;;;1.47;;
14076;SDS011;7114;51.100;13.998;2023-04-15T08:11:32;4.50;;;0.98;;
14076;SDS011;7114;51.100;13.998;2023-04-15T08:13:58;5.70;;;1.58;;
14076;SDS011;7114;51.100;13.998;2023-04-15T08:16:26;6.15;;;1.88;;
14076;SDS011;7114;51.100;13.998;2023-04-15T08:18:54;6.18;;;2.38;;
14076;SDS011;7114;51.100;13.998;2023-04-15T08:21:21;7.50;;;3.00;;
14076;SDS011;7114;51.100;13.998;2023-04-15T08:23:48;7.40;;;2.92;;
14076;SDS011;7114;51.100;13.998;2023-04-15T08:26:15;7.00;;;3.05;;
14076;SDS011;7114;51.100;13.998;2023-04-15T08:28:41;6.97;;;2.95;;
14076;SDS011;7114;51.100;13.998;2023-04-15T08:31:08;7.30;;;3.05;;
14076;SDS011;7114;51.100;13.998;2023-04-15T08:33:36;7.63;;;3.30;;
14076;SDS011;7114;51.100;13.998;2023-04-15T08:36:03;6.57;;;2.80;;
14076;SDS011;7114;51.100;13.998;2023-04-15T08:38:29;8.13;;;3.25;;
14076;SDS011;7114;51.100;13.998;2023-04-15T08:40:56;8.82;;;3.67;;
14076;SDS011;7114;51.100;13.998;2023-04-15T08:43:26;8.80;;;4.10;;
14076;SDS011;7114;51.100;13.998;2023-04-15T08:45:54;9.23;;;3.50;;
14076;SDS011;7114;51.100;13.998;2023-04-15T08:48:23;9.13;;;3.80;;
14076;SDS011;7114;51.100;13.998;2023-04-15T08:50:55;9.02;;;3.80;;
14076;SDS011;7114;51.100;13.998;2023-04-15T08:53:21;8.75;;;3.38;;
14076;SDS011;7114;51.100;13.998;2023-04-15T08:55:50;7.50;;;3.35;;
14076;SDS011;7114;51.100;13.998;2023-04-15T08:58:17;8.67;;;3.67;;
14076;SDS011;7114;51.100;13.998;2023-04-15T09:00:44;8.70;;;3.90;;
14076;SDS011;7114;51.100;13.998;2023-04-15T09:03:11;7.88;;;3.85;;
14076;SDS011;7114;51.100;13.998;2023-04-15T09:05:37;7.55;;;3.40;;
14076;SDS011;7114;51.100;13.998;2023-04-15T09:08:05;7.65;;;3.22;;
14076;SDS011;7114;51.100;13.998;2023-04-15T09:10:33;7.43;;;3.20;;
14076;SDS011;7114;51.100;13.998;2023-04-15T09:12:59;6.65;;;2.85;;
14076;SDS011;7114;51.100;13.998;2023-04-15T09:15:26;6.57;;;2.83;;
14076;SDS011;7114;51.100;13.998;2023-04-15T09:17:53;7.13;;;2.90;;
14076;SDS011;7114;51.100;13.998;2023-04-15T09:20:19;6.65;;;2.88;;
14076;SDS011;7114;51.100;13.998;2023-04-15T09:22:46;7.03;;;2.70;;
14076;SDS011;7114;51.100;13.998;2023-04-15T09:25:28;6.70;;;2.80;;
14076;SDS011;7114;51.100;13.998;2023-04-15T09:27:55;6.50;;;2.88;;
14076;SDS011;7114;51.100;13.998;2023-04-15T09:30:23;6.78;;;2.90;;
14076;SDS011;7114;51.100;13.998;2023-04-15T09:32:49;6.43;;;2.72;;
14076;SDS011;7114;51.100;13.998;2023-04-15T09:35:16;6.47;;;2.70;;
14076;SDS011;7114;51.100;13.998;2023-04-15T09:37:42;6.35;;;2.17;;
14076;SDS011;7114;51.100;13.998;2023-04-15T09:40:09;6.55;;;2.20;;
14076;SDS011;7114;51.100;13.998;2023-04-15T09:42:37;6.45;;;2.15;;
14076;SDS011;7114;51.100;13.998;2023-04-15T09:45:19;5.95;;;2.20;;
14076;SDS011;7114;51.100;13.998;2023-04-15T09:47:46;6.17;;;2.07;;
14076;SDS011;7114;51.100;13.998;2023-04-15T09:50:12;10.02;;;1.63;;
14076;SDS011;7114;51.100;13.998;2023-04-15T09:52:40;6.35;;;1.63;;
14076;SDS011;7114;51.100;13.998;2023-04-15T09:55:07;5.97;;;1.50;;
14076;SDS011;7114;51.100;13.998;2023-04-15T09:57:34;5.47;;;1.55;;
14076;SDS011;7114;51.100;13.998;2023-04-15T10:00:04;5.07;;;1.23;;
14076;SDS011;7114;51.100;13.998;2023-04-15T10:02:32;5.13;;;1.40;;
14076;SDS011;7114;51.100;13.998;2023-04-15T10:04:58;4.82;;;1.33;;
14076;SDS011;7114;51.100;13.998;2023-04-15T10:07:25;5.07;;;0.93;;
14076;SDS011;7114;51.100;13.998;2023-04-15T10:09:51;4.50;;;1.25;;
14076;SDS011;7114;51.100;13.998;2023-04-15T10:12:18;4.70;;;1.00;;
14076;SDS011;7114;51.100;13.998;2023-04-15T10:14:45;4.68;;;1.10;;
14076;SDS011;7114;51.100;13.998;2023-04-15T10:17:15;4.63;;;1.00;;
14076;SDS011;7114;51.100;13.998;2023-04-15T10:19:43;4.85;;;0.80;;
14076;SDS011;7114;51.100;13.998;2023-04-15T10:22:10;4.70;;;0.90;;
14076;SDS011;7114;51.100;13.998;2023-04-15T10:24:36;3.93;;;0.70;;
14076;SDS011;7114;51.100;13.998;2023-04-15T10:27:03;4.70;;;1.05;;
14076;SDS011;7114;51.100;13.998;2023-04-15T10:29:30;5.55;;;1.20;;
14076;SDS011;7114;51.100;13.998;2023-04-15T10:31:57;5.72;;;1.20;;
14076;SDS011;7114;51.100;13.998;2023-04-15T10:34:26;6.13;;;2.15;;
14076;SDS011;7114;51.100;13.998;2023-04-15T10:36:53;5.07;;;1.30;;
14076;SDS011;7114;51.100;13.998;2023-04-15T10:42:05;5.18;;;1.10;;
14076;SDS011;7114;51.100;13.998;2023-04-15T10:44:32;4.50;;;0.80;;
14076;SDS011;7114;51.100;13.998;2023-04-15T10:46:58;4.25;;;0.90;;
14076;SDS011;7114;51.100;13.998;2023-04-15T10:49:26;4.30;;;0.80;;
14076;SDS011;7114;51.100;13.998;2023-04-15T10:51:56;4.43;;;1.05;;
14076;SDS011;7114;51.100;13.998;2023-04-15T10:54:29;3.90;;;0.93;;
14076;SDS011;7114;51.100;13.998;2023-04-15T10:57:05;5.80;;;0.90;;
14076;SDS011;7114;51.100;13.998;2023-04-15T10:59:35;3.85;;;0.82;;
14076;SDS011;7114;51.100;13.998;2023-04-15T11:02:02;3.63;;;0.70;;
14076;SDS011;7114;51.100;13.998;2023-04-15T11:07:32;4.60;;;0.80;;
14076;SDS011;7114;51.100;13.998;2023-04-15T11:10:00;3.63;;;0.70;;
14076;SDS011;7114;51.100;13.998;2023-04-15T11:12:32;2.65;;;0.50;;
14076;SDS011;7114;51.100;13.998;2023-04-15T11:14:59;4.50;;;0.60;;
14076;SDS011;7114;51.100;13.998;2023-04-15T11:17:27;6.07;;;0.60;;
14076;SDS011;7114;51.100;13.998;2023-04-15T11:19:55;3.58;;;0.68;;
14076;SDS011;7114;51.100;13.998;2023-04-15T11:22:21;4.18;;;0.77;;
14076;SDS011;7114;51.100;13.998;2023-04-15T11:24:47;3.90;;;0.70;;
14076;SDS011;7114;51.100;13.998;2023-04-15T11:27:19;2.97;;;0.50;;
14076;SDS011;7114;51.100;13.998;2023-04-15T11:29:46;4.47;;;0.68;;
14076;SDS011;7114;51.100;13.998;2023-04-15T11:32:12;5.30;;;0.80;;
14076;SDS011;7114;51.100;13.998;2023-04-15T11:34:38;3.78;;;0.63;;
14076;SDS011;7114;51.100;13.998;2023-04-15T11:37:06;3.25;;;0.52;;
14076;SDS011;7114;51.100;13.998;2023-04-15T11:39:32;4.43;;;0.67;;
14076;SDS011;7114;51.100;13.998;2023-04-15T11:41:59;3.97;;;0.60;;
14076;SDS011;7114;51.100;13.998;2023-04-15T11:44:25;3.63;;;0.60;;
14076;SDS011;7114;51.100;13.998;2023-04-15T11:46:53;4.68;;;0.70;;
14076;SDS011;7114;51.100;13.998;2023-04-15T11:49:27;4.20;;;0.70;;
14076;SDS011;7114;51.100;13.998;2023-04-15T11:51:53;4.17;;;0.50;;
14076;SDS011;7114;51.100;13.998;2023-04-15T11:54:21;3.40;;;0.60;;
14076;SDS011;7114;51.100;13.998;2023-04-15T11:56:51;4.47;;;0.50;;
14076;SDS011;7114;51.100;13.998;2023-04-15T11:59:20;4.25;;;0.70;;
14076;SDS011;7114;51.100;13.998;2023-04-15T12:01:46;3.25;;;0.50;;
14076;SDS011;7114;51.100;13.998;2023-04-15T12:04:14;4.13;;;0.40;;
14076;SDS011;7114;51.100;13.998;2023-04-15T12:06:43;3.03;;;0.50;;
14076;SDS011;7114;51.100;13.998;2023-04-15T12:09:10;3.47;;;0.50;;
14076;SDS011;7114;51.100;13.998;2023-04-15T12:11:39;3.70;;;0.45;;
14076;SDS011;7114;51.100;13.998;2023-04-15T12:14:10;3.55;;;0.50;;
14076;SDS011;7114;51.100;13.998;2023-04-15T12:16:39;3.83;;;0.50;;
14076;SDS011;7114;51.100;13.998;2023-04-15T12:19:07;3.55;;;0.50;;
14076;SDS011;7114;51.100;13.998;2023-04-15T12:21:35;3.70;;;0.57;;
14076;SDS011;7114;51.100;13.998;2023-04-15T12:24:03;3.33;;;0.50;;
14076;SDS011;7114;51.100;13.998;2023-04-15T12:26:33;3.20;;;0.50;;
14076;SDS011;7114;51.100;13.998;2023-04-15T12:29:02;3.43;;;0.50;;
14076;SDS011;7114;51.100;13.998;2023-04-15T12:31:30;3.35;;;0.70;;
14076;SDS011;7114;51.100;13.998;2023-04-15T12:33:56;3.85;;;0.40;;
14076;SDS011;7114;51.100;13.998;2023-04-15T12:36:23;3.78;;;0.60;;
14076;SDS011;7114;51.100;13.998;2023-04-15T12:38:49;3.15;;;0.50;;
14076;SDS011;7114;51.100;13.998;2023-04-15T12:41:16;3.37;;;0.43;;
14076;SDS011;7114;51.100;13.998;2023-04-15T12:43:43;3.38;;;0.50;;
14076;SDS011;7114;51.100;13.998;2023-04-15T12:46:10;3.83;;;0.50;;
14076;SDS011;7114;51.100;13.998;2023-04-15T12:48:37;3.05;;;0.50;;
14076;SDS011;7114;51.100;13.998;2023-04-15T12:51:03;3.03;;;0.60;;
14076;SDS011;7114;51.100;13.998;2023-04-15T12:53:29;4.07;;;0.50;;
14076;SDS011;7114;51.100;13.998;2023-04-15T12:55:56;4.00;;;0.60;;
14076;SDS011;7114;51.100;13.998;2023-04-15T12:58:22;4.90;;;0.60;;
14076;SDS011;7114;51.100;13.998;2023-04-15T13:00:48;3.80;;;0.60;;
14076;SDS011;7114;51.100;13.998;2023-04-15T13:03:16;3.33;;;0.57;;
14076;SDS011;7114;51.100;13.998;2023-04-15T13:05:43;4.17;;;0.70;;
14076;SDS011;7114;51.100;13.998;2023-04-15T13:08:09;3.55;;;0.50;;
14076;SDS011;7114;51.100;13.998;2023-04-15T13:10:36;3.47;;;0.60;;
14076;SDS011;7114;51.100;13.998;2023-04-15T13:13:02;3.70;;;0.57;;
14076;SDS011;7114;51.100;13.998;2023-04-15T13:15:29;3.15;;;0.52;;
14076;SDS011;7114;51.100;13.998;2023-04-15T13:17:55;3.40;;;0.57;;
14076;SDS011;7114;51.100;13.998;2023-04-15T13:20:23;2.95;;;0.50;;
14076;SDS011;7114;51.100;13.998;2023-04-15T13:22:50;3.03;;;0.50;;
14076;SDS011;7114;51.100;13.998;2023-04-15T13:25:17;3.50;;;0.60;;
14076;SDS011;7114;51.100;13.998;2023-04-15T13:27:44;3.53;;;0.70;;
14076;SDS011;7114;51.100;13.998;2023-04-15T13:30:10;3.37;;;0.60;;
14076;SDS011;7114;51.100;13.998;2023-04-15T13:32:37;3.13;;;0.57;;
14076;SDS011;7114;51.100;13.998;2023-04-15T13:35:03;3.42;;;0.60;;
14076;SDS011;7114;51.100;13.998;2023-04-15T13:37:31;3.72;;;0.70;;
14076;SDS011;7114;51.100;13.998;2023-04-15T13:39:57;3.63;;;0.60;;
14076;SDS011;7114;51.100;13.998;2023-04-15T13:42:24;3.67;;;0.73;;
14076;SDS011;7114;51.100;13.998;2023-04-15T13:44:51;3.85;;;0.60;;
14076;SDS011;7114;51.100;13.998;2023-04-15T13:47:17;4.38;;;0.70;;
14076;SDS011;7114;51.100;13.998;2023-04-15T13:49:44;5.53;;;0.93;;
14076;SDS011;7114;51.100;13.998;2023-04-15T13:52:10;3.95;;;0.70;;
14076;SDS011;7114;51.100;13.998;2023-04-15T13:54:38;3.63;;;0.70;;
14076;SDS011;7114;51.100;13.998;2023-04-15T13:57:04;4.10;;;0.70;;
14076;SDS011;7114;51.100;13.998;2023-04-15T13:59:31;3.97;;;0.80;;
14076;SDS011;7114;51.100;13.998;2023-04-15T14:01:58;4.43;;;0.95;;
14076;SDS011;7114;51.100;13.998;2023-04-15T14:04:24;3.95;;;0.70;;
14076;SDS011;7114;51.100;13.998;2023-04-15T14:06:50;4.53;;;1.10;;
14076;SDS011;7114;51.100;13.998;2023-04-15T14:09:16;4.40;;;1.10;;
14076;SDS011;7114;51.100;13.998;2023-04-15T14:11:44;4.45;;;1.00;;
14076;SDS011;7114;51.100;13.998;2023-04-15T14:14:10;4.28;;;0.90;;
14076;SDS011;7114;51.100;13.998;2023-04-15T14:16:36;4.15;;;0.90;;
14076;SDS011;7114;51.100;13.998;2023-04-15T14:19:03;4.10;;;0.80;;
14076;SDS011;7114;51.100;13.998;2023-04-15T14:21:29;4.20;;;0.75;;
14076;SDS011;7114;51.100;13.998;2023-04-15T14:23:56;3.97;;;1.00;;
14076;SDS011;7114;51.100;13.998;2023-04-15T14:26:22;4.50;;;0.98;;
14076;SDS011;7114;51.100;13.998;2023-04-15T14:28:50;3.80;;;0.70;;
14076;SDS011;7114;51.100;13.998;2023-04-15T14:31:17;4.93;;;0.80;;
14076;SDS011;7114;51.100;13.998;2023-04-15T14:33:43;4.50;;;1.00;;
14076;SDS011;7114;51.100;13.998;2023-04-15T14:36:10;4.18;;;0.90;;
14076;SDS011;7114;51.100;13.998;2023-04-15T14:38:36;5.22;;;0.90;;
14076;SDS011;7114;51.100;13.998;2023-04-15T14:41:03;4.00;;;0.90;;
14076;SDS011;7114;51.100;13.998;2023-04-15T14:43:30;3.80;;;0.70;;
14076;SDS011;7114;51.100;13.998;2023-04-15T14:45:58;4.10;;;0.95;;
14076;SDS011;7114;51.100;13.998;2023-04-15T14:48:24;4.32;;;0.90;;
14076;SDS011;7114;51.100;13.998;2023-04-15T14:50:51;4.00;;;0.98;;
14076;SDS011;7114;51.100;13.998;2023-04-15T14:53:17;4.47;;;1.20;;